createdAt,value
2018-03-20T00:00:34.027Z,81.85
2018-03-20T00:01:34.657Z,81.95
2018-03-20T00:02:35.262Z,82.14
2018-03-20T00:03:35.846Z,82.61
2018-03-20T00:04:36.449Z,82.51
2018-03-20T00:05:37.202Z,82.70
2018-03-20T00:06:37.876Z,82.80
2018-03-20T00:07:38.620Z,82.99
2018-03-20T00:08:39.319Z,82.61
2018-03-20T00:09:40.058Z,82.89
2018-03-20T00:10:40.794Z,82.80
2018-03-20T00:11:41.450Z,82.89
2018-03-20T00:12:42.046Z,82.51
2018-03-20T00:13:42.672Z,82.51
2018-03-20T00:14:43.317Z,82.80
2018-03-20T00:15:44.010Z,82.80
2018-03-20T00:16:44.697Z,82.51
2018-03-20T00:17:45.338Z,82.61
2018-03-20T00:18:46.024Z,82.14
2018-03-20T00:19:46.687Z,82.32
2018-03-20T00:20:47.421Z,82.61
2018-03-20T00:21:47.970Z,82.42
2018-03-20T00:22:48.686Z,82.70
2018-03-20T00:23:49.405Z,82.76
2018-03-20T00:24:50.017Z,83.14
2018-03-20T00:25:50.633Z,82.95
2018-03-20T00:26:51.319Z,83.61
2018-03-20T00:27:51.983Z,83.61
2018-03-20T00:28:52.724Z,83.23
2018-03-20T00:29:53.316Z,83.14
2018-03-20T00:30:54.023Z,83.23
2018-03-20T00:31:54.658Z,83.04
2018-03-20T00:32:55.428Z,83.23
2018-03-20T00:33:56.117Z,83.42
2018-03-20T00:34:56.747Z,83.61
2018-03-20T00:35:57.385Z,83.80
2018-03-20T00:36:58.034Z,83.61
2018-03-20T00:37:58.691Z,83.61
2018-03-20T00:38:59.439Z,84.27
2018-03-20T00:40:00.050Z,83.61
2018-03-20T00:41:00.749Z,83.42
2018-03-20T00:42:01.467Z,83.33
2018-03-20T00:43:02.067Z,83.33
2018-03-20T00:44:02.724Z,83.14
2018-03-20T00:45:03.428Z,82.95
2018-03-20T00:46:04.118Z,83.70
2018-03-20T00:47:04.928Z,83.04
2018-03-20T00:48:05.588Z,83.33
2018-03-20T00:49:06.217Z,82.95
2018-03-20T00:50:06.869Z,83.42
2018-03-20T00:51:07.462Z,83.23
2018-03-20T00:52:08.103Z,83.42
2018-03-20T00:53:08.660Z,83.23
2018-03-20T00:54:09.400Z,83.61
2018-03-20T00:55:10.020Z,83.23
2018-03-20T00:56:10.698Z,82.95
2018-03-20T00:57:11.399Z,82.85
2018-03-20T00:58:12.020Z,82.19
2018-03-20T00:59:12.734Z,82.47
2018-03-20T01:00:13.428Z,82.38
2018-03-20T01:01:14.045Z,82.38
2018-03-20T01:02:14.697Z,82.28
2018-03-20T01:03:15.247Z,82.10
2018-03-20T01:04:15.831Z,82.00
2018-03-20T01:05:16.427Z,82.10
2018-03-20T01:06:17.150Z,82.10
2018-03-20T01:07:17.789Z,82.38
2018-03-20T01:08:18.454Z,82.10
2018-03-20T01:09:19.086Z,81.62
2018-03-20T01:10:19.736Z,81.53
2018-03-20T01:11:20.431Z,81.34
2018-03-20T01:12:21.076Z,81.43
2018-03-20T01:13:21.721Z,81.53
2018-03-20T01:14:22.401Z,81.91
2018-03-20T01:15:23.079Z,81.91
2018-03-20T01:16:23.709Z,81.91
2018-03-20T01:17:24.332Z,81.91
2018-03-20T01:18:24.976Z,82.10
2018-03-20T01:19:25.649Z,82.19
2018-03-20T01:20:26.162Z,81.91
2018-03-20T01:21:26.807Z,82.00
2018-03-20T01:22:27.495Z,82.00
2018-03-20T01:23:28.119Z,82.10
2018-03-20T01:24:28.762Z,82.19
2018-03-20T01:25:29.452Z,81.81
2018-03-20T01:26:30.037Z,82.28
2018-03-20T01:27:30.750Z,82.38
2018-03-20T01:28:31.406Z,82.28
2018-03-20T01:29:32.045Z,82.66
2018-03-20T01:30:32.703Z,82.38
2018-03-20T01:31:33.409Z,82.47
2018-03-20T01:32:33.995Z,82.28
2018-03-20T01:33:34.655Z,82.57
2018-03-20T01:34:35.283Z,82.19
2018-03-20T01:35:35.844Z,82.19
2018-03-20T01:36:36.545Z,82.66
2018-03-20T01:37:37.201Z,82.66
2018-03-20T01:38:38.097Z,82.38
2018-03-20T01:39:38.742Z,82.57
2018-03-20T01:40:39.413Z,82.76
2018-03-20T01:41:40.186Z,83.23
2018-03-20T01:42:40.848Z,83.80
2018-03-20T01:43:41.511Z,84.74
2018-03-20T01:44:42.135Z,84.92
2018-03-20T01:45:42.792Z,85.40
2018-03-20T01:46:43.454Z,85.77
2018-03-20T01:47:44.220Z,85.87
2018-03-20T01:48:44.842Z,86.15
2018-03-20T01:49:45.436Z,86.72
2018-03-20T01:50:46.049Z,87.00
2018-03-20T01:51:46.654Z,86.44
2018-03-20T01:52:47.327Z,86.72
2018-03-20T01:53:47.959Z,86.63
2018-03-20T01:54:48.568Z,87.29
2018-03-20T01:55:49.185Z,87.10
2018-03-20T01:56:49.852Z,87.00
2018-03-20T01:57:50.552Z,87.10
2018-03-20T01:58:51.174Z,87.29
2018-03-20T01:59:51.832Z,87.48
2018-03-20T02:00:52.491Z,87.76
2018-03-20T02:01:53.130Z,87.76
2018-03-20T02:02:53.809Z,87.95
2018-03-20T02:03:54.417Z,88.23
2018-03-20T02:04:55.097Z,88.13
2018-03-20T02:05:55.663Z,88.23
2018-03-20T02:06:56.321Z,88.04
2018-03-20T02:07:56.928Z,88.32
2018-03-20T02:08:57.581Z,88.89
2018-03-20T02:09:58.247Z,88.60
2018-03-20T02:10:58.932Z,88.60
2018-03-20T02:11:59.560Z,88.79
2018-03-20T02:13:00.160Z,89.36
2018-03-20T02:14:00.760Z,89.36
2018-03-20T02:15:01.348Z,89.45
2018-03-20T02:16:01.948Z,89.93
2018-03-20T02:17:02.552Z,89.55
2018-03-20T02:18:03.170Z,90.21
2018-03-20T02:19:03.744Z,90.87
2018-03-20T02:20:04.342Z,91.25
2018-03-20T02:21:04.938Z,92.57
2018-03-20T02:22:05.536Z,92.95
2018-03-20T02:23:06.121Z,92.76
2018-03-20T02:24:06.718Z,92.95
2018-03-20T02:25:07.322Z,92.85
2018-03-20T02:26:07.922Z,92.76
2018-03-20T02:27:08.508Z,92.85
2018-03-20T02:28:09.104Z,93.04
2018-03-20T02:29:09.690Z,93.61
2018-03-20T02:30:10.312Z,93.70
2018-03-20T02:31:10.884Z,93.99
2018-03-20T02:32:11.476Z,93.70
2018-03-20T02:33:12.092Z,94.18
2018-03-20T02:34:12.669Z,93.89
2018-03-20T02:35:13.247Z,94.65
2018-03-20T02:36:13.838Z,94.46
2018-03-20T02:37:14.439Z,94.65
2018-03-20T02:38:15.031Z,94.65
2018-03-20T02:39:15.638Z,94.32
2018-03-20T02:40:16.243Z,94.27
2018-03-20T02:41:16.869Z,94.27
2018-03-20T02:42:17.446Z,94.46
2018-03-20T02:43:18.049Z,94.36
2018-03-20T02:44:18.654Z,94.74
2018-03-20T02:45:19.249Z,94.88
2018-03-20T02:46:19.853Z,95.36
2018-03-20T02:47:20.443Z,96.20
2018-03-20T02:48:21.058Z,96.20
2018-03-20T02:49:21.641Z,96.63
2018-03-20T02:50:22.239Z,96.39
2018-03-20T02:51:22.833Z,97.29
2018-03-20T02:52:23.434Z,97.61
2018-03-20T02:53:24.022Z,98.52
2018-03-20T02:54:24.625Z,98.56
2018-03-20T02:55:25.218Z,98.75
2018-03-20T02:56:25.822Z,99.41
2018-03-20T02:57:26.418Z,99.41
2018-03-20T02:58:27.018Z,99.69
2018-03-20T02:59:27.608Z,99.22
2018-03-20T03:00:28.197Z,99.32
2018-03-20T03:01:28.794Z,99.22
2018-03-20T03:02:29.380Z,99.22
2018-03-20T03:03:29.986Z,99.88
2018-03-20T03:04:30.568Z,99.88
2018-03-20T03:05:31.171Z,99.51
2018-03-20T03:06:31.765Z,99.99
2018-03-20T03:07:32.361Z,99.98
2018-03-20T03:08:32.955Z,99.99
2018-03-20T03:09:33.574Z,99.99
2018-03-20T03:10:34.150Z,99.99
2018-03-20T03:11:34.751Z,99.99
2018-03-20T03:12:35.342Z,99.99
2018-03-20T03:13:35.932Z,99.99
2018-03-20T03:14:36.524Z,99.99
2018-03-20T03:15:37.122Z,99.99
2018-03-20T03:16:37.743Z,99.99
2018-03-20T03:17:38.320Z,99.99
2018-03-20T03:18:38.917Z,99.99
2018-03-20T03:19:39.510Z,99.99
2018-03-20T03:20:40.097Z,99.99
2018-03-20T03:21:40.695Z,99.99
2018-03-20T03:22:41.288Z,99.99
2018-03-20T03:23:41.902Z,99.99
2018-03-20T03:24:42.494Z,99.99
2018-03-20T03:25:43.076Z,99.99
2018-03-20T03:26:43.669Z,99.99
2018-03-20T03:27:44.259Z,99.99
2018-03-20T03:28:44.892Z,99.99
2018-03-20T03:29:45.449Z,99.99
2018-03-20T03:30:46.061Z,99.99
2018-03-20T03:31:46.640Z,99.99
2018-03-20T03:32:47.237Z,99.84
2018-03-20T03:33:47.808Z,99.74
2018-03-20T03:34:48.410Z,99.65
2018-03-20T03:35:49.002Z,99.55
2018-03-20T03:36:49.588Z,98.71
2018-03-20T03:37:50.189Z,99.22
2018-03-20T03:38:50.779Z,98.71
2018-03-20T03:39:51.377Z,98.61
2018-03-20T03:40:51.975Z,98.85
2018-03-20T03:41:52.582Z,99.32
2018-03-20T03:42:53.169Z,99.22
2018-03-20T03:43:53.758Z,98.85
2018-03-20T03:44:54.352Z,98.85
2018-03-20T03:45:54.941Z,98.47
2018-03-20T03:46:55.523Z,98.75
2018-03-20T03:47:56.113Z,98.66
2018-03-20T03:48:56.705Z,99.04
2018-03-20T03:49:57.299Z,99.13
2018-03-20T03:50:57.891Z,99.13
2018-03-20T03:51:58.500Z,99.13
2018-03-20T03:52:59.106Z,99.13
2018-03-20T03:53:59.673Z,99.22
2018-03-20T03:55:00.259Z,99.22
2018-03-20T03:56:00.854Z,99.22
2018-03-20T03:57:01.454Z,99.13
2018-03-20T03:58:02.053Z,99.22
2018-03-20T03:59:02.657Z,99.32
2018-03-20T04:00:03.252Z,99.22
2018-03-20T04:01:03.862Z,99.41
2018-03-20T04:02:04.459Z,99.41
2018-03-20T04:03:05.056Z,99.60
2018-03-20T04:04:05.662Z,99.70
2018-03-20T04:05:06.264Z,99.88
2018-03-20T04:06:06.871Z,99.99
2018-03-20T04:07:07.446Z,99.99
2018-03-20T04:08:08.036Z,99.99
2018-03-20T04:09:08.631Z,99.99
2018-03-20T04:10:09.218Z,99.99
2018-03-20T04:11:09.820Z,99.99
2018-03-20T04:12:10.408Z,99.99
2018-03-20T04:13:11.000Z,99.99
2018-03-20T04:14:11.608Z,99.99
2018-03-20T04:15:12.199Z,99.99
2018-03-20T04:16:12.798Z,99.99
2018-03-20T04:17:13.407Z,99.99
2018-03-20T04:18:14.000Z,99.99
2018-03-20T04:19:14.572Z,99.99
2018-03-20T04:20:15.164Z,99.99
2018-03-20T04:21:15.758Z,99.99
2018-03-20T04:22:16.356Z,99.99
2018-03-20T04:23:16.949Z,99.99
2018-03-20T04:24:17.537Z,99.99
2018-03-20T04:25:18.135Z,99.99
2018-03-20T04:26:18.735Z,99.99
2018-03-20T04:27:19.334Z,99.99
2018-03-20T04:28:19.954Z,99.99
2018-03-20T04:29:20.524Z,99.99
2018-03-20T04:30:21.113Z,99.99
2018-03-20T04:31:21.713Z,99.99
2018-03-20T04:32:22.310Z,99.99
2018-03-20T04:33:22.907Z,99.99
2018-03-20T04:34:23.503Z,99.99
2018-03-20T04:35:24.112Z,99.99
2018-03-20T04:36:24.683Z,99.99
2018-03-20T04:37:25.292Z,99.99
2018-03-20T04:38:25.893Z,99.99
2018-03-20T04:39:26.495Z,99.99
2018-03-20T04:40:27.095Z,99.99
2018-03-20T04:41:27.687Z,99.99
2018-03-20T04:42:28.281Z,99.99
2018-03-20T04:43:28.905Z,99.99
2018-03-20T04:44:29.479Z,99.99
2018-03-20T04:45:30.086Z,99.99
2018-03-20T04:46:30.678Z,99.99
2018-03-20T04:47:31.264Z,99.99
2018-03-20T04:48:31.845Z,99.99
2018-03-20T04:49:32.450Z,99.99
2018-03-20T04:50:33.045Z,99.99
2018-03-20T04:51:33.644Z,99.99
2018-03-20T04:52:34.243Z,99.99
2018-03-20T04:53:34.828Z,99.99
2018-03-20T04:54:35.424Z,99.99
2018-03-20T04:55:36.008Z,99.99
2018-03-20T04:56:36.618Z,99.99
2018-03-20T04:57:37.207Z,99.99
2018-03-20T04:58:37.825Z,99.99
2018-03-20T04:59:38.405Z,99.99
2018-03-20T05:00:39.000Z,99.99
2018-03-20T05:01:39.589Z,99.99
2018-03-20T05:02:40.241Z,99.99
2018-03-20T05:03:40.795Z,99.99
2018-03-20T05:04:41.400Z,99.99
2018-03-20T05:05:41.988Z,99.99
2018-03-20T05:06:42.589Z,99.99
2018-03-20T05:07:43.176Z,99.99
2018-03-20T05:08:43.776Z,99.99
2018-03-20T05:09:44.377Z,99.99
2018-03-20T05:10:44.983Z,99.99
2018-03-20T05:11:45.597Z,99.99
2018-03-20T05:12:46.184Z,99.99
2018-03-20T05:13:46.767Z,99.99
2018-03-20T05:14:47.368Z,99.99
2018-03-20T05:15:47.966Z,99.99
2018-03-20T05:16:48.557Z,99.99
2018-03-20T05:17:49.165Z,99.99
2018-03-20T05:18:49.765Z,99.99
2018-03-20T05:19:50.356Z,99.99
2018-03-20T05:20:50.964Z,99.99
2018-03-20T05:21:51.585Z,99.99
2018-03-20T05:22:52.155Z,99.99
2018-03-20T05:23:52.768Z,99.99
2018-03-20T05:24:53.353Z,99.99
2018-03-20T05:25:53.955Z,99.99
2018-03-20T05:26:54.557Z,99.99
2018-03-20T05:27:55.159Z,99.99
2018-03-20T05:28:55.793Z,99.99
2018-03-20T05:29:56.349Z,99.99
2018-03-20T05:30:56.949Z,99.99
2018-03-20T05:31:57.558Z,99.99
2018-03-20T05:32:58.139Z,99.99
2018-03-20T05:33:58.733Z,99.99
2018-03-20T05:34:59.338Z,99.99
2018-03-20T05:35:59.928Z,99.99
2018-03-20T05:37:00.533Z,99.99
2018-03-20T05:38:01.143Z,99.99
2018-03-20T05:39:01.741Z,99.99
2018-03-20T05:40:02.340Z,99.99
2018-03-20T05:41:02.941Z,99.99
2018-03-20T05:42:03.544Z,99.99
2018-03-20T05:43:04.157Z,99.99
2018-03-20T05:44:04.753Z,99.99
2018-03-20T05:45:05.350Z,99.99
2018-03-20T05:46:05.954Z,99.99
2018-03-20T05:47:06.543Z,99.99
2018-03-20T05:48:07.147Z,99.99
2018-03-20T05:49:07.754Z,99.99
2018-03-20T05:50:08.356Z,99.99
2018-03-20T05:51:08.967Z,99.99
2018-03-20T05:52:09.550Z,99.99
2018-03-20T05:53:10.151Z,99.99
2018-03-20T05:54:10.735Z,99.99
2018-03-20T05:55:11.325Z,99.99
2018-03-20T05:56:11.929Z,99.99
2018-03-20T05:57:12.530Z,99.99
2018-03-20T05:58:13.144Z,99.99
2018-03-20T05:59:13.742Z,99.99
2018-03-20T06:00:14.344Z,99.99
2018-03-20T06:01:14.953Z,99.99
2018-03-20T06:02:15.560Z,99.99
2018-03-20T06:03:16.146Z,99.99
2018-03-20T06:04:16.745Z,99.99
2018-03-20T06:05:17.348Z,99.99
2018-03-20T06:06:18.024Z,99.99
2018-03-20T06:07:18.557Z,99.99
2018-03-20T06:08:19.159Z,99.99
2018-03-20T06:09:19.761Z,99.99
2018-03-20T06:10:20.368Z,99.99
2018-03-20T06:11:20.991Z,99.99
2018-03-20T06:12:21.649Z,99.99
2018-03-20T06:13:22.196Z,99.99
2018-03-20T06:14:22.848Z,99.99
2018-03-20T06:15:23.499Z,99.99
2018-03-20T06:16:24.071Z,99.99
2018-03-20T06:17:24.662Z,99.99
2018-03-20T06:18:25.259Z,99.99
2018-03-20T06:19:25.868Z,99.99
2018-03-20T06:20:26.474Z,99.99
2018-03-20T06:21:27.061Z,99.99
2018-03-20T06:22:27.645Z,99.99
2018-03-20T06:23:28.247Z,99.99
2018-03-20T06:24:28.852Z,99.99
2018-03-20T06:25:29.452Z,99.99
2018-03-20T06:26:30.044Z,99.99
2018-03-20T06:27:30.637Z,99.99
2018-03-20T06:28:31.240Z,99.99
2018-03-20T06:29:31.831Z,99.99
2018-03-20T06:30:32.460Z,99.99
2018-03-20T06:31:33.047Z,99.99
2018-03-20T06:32:33.645Z,99.99
2018-03-20T06:33:34.247Z,99.99
2018-03-20T06:34:34.855Z,99.99
2018-03-20T06:35:35.442Z,99.99
2018-03-20T06:36:36.044Z,99.99
2018-03-20T06:37:36.650Z,99.99
2018-03-20T06:38:37.257Z,99.99
2018-03-20T06:39:37.861Z,99.99
2018-03-20T06:40:38.472Z,99.99
2018-03-20T06:41:39.069Z,99.99
2018-03-20T06:42:39.665Z,99.99
2018-03-20T06:43:40.384Z,99.99
2018-03-20T06:44:40.935Z,99.99
2018-03-20T06:45:41.532Z,99.99
2018-03-20T06:46:42.139Z,99.99
2018-03-20T06:47:42.737Z,99.99
2018-03-20T06:48:43.328Z,99.99
2018-03-20T06:49:43.925Z,99.99
2018-03-20T06:50:44.536Z,99.99
2018-03-20T06:51:45.117Z,99.99
2018-03-20T06:52:45.713Z,99.99
2018-03-20T06:53:46.338Z,99.99
2018-03-20T06:54:46.906Z,99.99
2018-03-20T06:55:47.632Z,99.99
2018-03-20T06:56:48.323Z,99.99
2018-03-20T06:57:49.082Z,99.99
2018-03-20T06:58:49.742Z,99.99
2018-03-20T06:59:50.404Z,99.99
2018-03-20T07:00:51.194Z,99.99
2018-03-20T07:01:52.760Z,99.99
2018-03-20T07:02:53.428Z,99.99
2018-03-20T07:03:54.105Z,99.99
2018-03-20T07:04:54.750Z,99.99
2018-03-20T07:05:55.321Z,99.99
2018-03-20T07:06:56.027Z,99.99
2018-03-20T07:07:56.695Z,99.99
2018-03-20T07:08:57.370Z,99.99
2018-03-20T07:09:58.035Z,99.99
2018-03-20T07:10:58.720Z,99.99
2018-03-20T07:11:59.343Z,99.99
2018-03-20T07:13:00.007Z,99.99
2018-03-20T07:14:00.676Z,99.99
2018-03-20T07:15:01.363Z,99.99
2018-03-20T07:16:02.036Z,99.99
2018-03-20T07:17:02.666Z,99.99
2018-03-20T07:18:03.359Z,99.99
2018-03-20T07:19:03.975Z,99.99
2018-03-20T07:20:04.599Z,99.99
2018-03-20T07:21:05.180Z,99.99
2018-03-20T07:22:05.895Z,99.99
2018-03-20T07:23:06.613Z,99.99
2018-03-20T07:24:07.227Z,99.99
2018-03-20T07:25:07.919Z,99.99
2018-03-20T07:26:08.567Z,99.99
2018-03-20T07:27:09.170Z,99.99
2018-03-20T07:28:09.859Z,99.99
2018-03-20T07:29:10.524Z,99.99
2018-03-20T07:30:11.194Z,99.99
2018-03-20T07:31:11.855Z,99.99
2018-03-20T07:32:12.536Z,99.99
2018-03-20T07:33:13.156Z,99.99
2018-03-20T07:34:13.875Z,99.99
2018-03-20T07:35:14.514Z,99.99
2018-03-20T07:36:15.174Z,99.99
2018-03-20T07:37:15.760Z,99.99
2018-03-20T07:38:16.442Z,99.99
2018-03-20T07:39:17.126Z,99.99
2018-03-20T07:40:17.814Z,99.99
2018-03-20T07:41:18.480Z,99.99
2018-03-20T07:42:19.099Z,99.99
2018-03-20T07:43:19.686Z,99.99
2018-03-20T07:44:20.454Z,99.99
2018-03-20T07:45:21.164Z,99.99
2018-03-20T07:46:21.861Z,99.99
2018-03-20T07:47:22.554Z,99.99
2018-03-20T07:48:23.274Z,99.99
2018-03-20T07:49:23.861Z,99.99
2018-03-20T07:50:24.523Z,99.99
2018-03-20T07:51:25.256Z,99.99
2018-03-20T07:52:25.925Z,99.99
2018-03-20T07:53:26.517Z,99.99
2018-03-20T07:54:27.219Z,99.99
2018-03-20T07:55:27.885Z,99.99
2018-03-20T07:56:28.594Z,99.99
2018-03-20T07:57:29.247Z,99.99
2018-03-20T07:58:29.935Z,99.99
2018-03-20T07:59:30.588Z,99.99
2018-03-20T08:00:31.290Z,99.99
2018-03-20T08:01:31.954Z,99.99
2018-03-20T08:02:32.626Z,99.99
2018-03-20T08:03:33.296Z,99.99
2018-03-20T08:04:34.005Z,99.99
2018-03-20T08:05:34.663Z,99.99
2018-03-20T08:06:35.334Z,99.99
2018-03-20T08:07:35.999Z,99.99
2018-03-20T08:08:36.580Z,99.99
2018-03-20T08:09:37.298Z,99.99
2018-03-20T08:10:37.878Z,99.99
2018-03-20T08:11:38.584Z,99.99
2018-03-20T08:12:39.270Z,99.99
2018-03-20T08:13:39.975Z,99.99
2018-03-20T08:14:40.664Z,99.99
2018-03-20T08:15:41.304Z,99.99
2018-03-20T08:16:41.998Z,99.99
2018-03-20T08:17:42.658Z,99.99
2018-03-20T08:18:43.361Z,99.99
2018-03-20T08:19:44.291Z,99.99
2018-03-20T08:20:44.934Z,99.99
2018-03-20T08:21:45.503Z,99.99
2018-03-20T08:22:46.209Z,99.99
2018-03-20T08:23:46.869Z,99.99
2018-03-20T08:24:47.465Z,99.99
2018-03-20T08:25:48.122Z,99.99
2018-03-20T08:26:48.813Z,99.99
2018-03-20T08:27:49.476Z,99.99
2018-03-20T08:28:50.096Z,99.99
2018-03-20T08:29:50.704Z,99.99
2018-03-20T08:30:51.405Z,99.99
2018-03-20T08:31:52.066Z,99.99
2018-03-20T08:32:52.695Z,99.99
2018-03-20T08:33:53.389Z,99.99
2018-03-20T08:34:54.109Z,99.99
2018-03-20T08:35:54.795Z,99.99
2018-03-20T08:36:55.469Z,99.99
2018-03-20T08:37:56.060Z,99.99
2018-03-20T08:38:56.769Z,99.99
2018-03-20T08:39:57.446Z,99.99
2018-03-20T08:40:58.039Z,99.99
2018-03-20T08:41:58.637Z,99.99
2018-03-20T08:42:59.302Z,99.99
2018-03-20T08:43:59.991Z,99.99
2018-03-20T08:45:00.615Z,99.99
2018-03-20T08:46:01.244Z,99.99
2018-03-20T08:47:01.806Z,99.99
2018-03-20T08:48:02.542Z,99.99
2018-03-20T08:49:03.183Z,99.99
2018-03-20T08:50:03.794Z,99.99
2018-03-20T08:51:04.490Z,99.99
2018-03-20T08:52:05.187Z,99.99
2018-03-20T08:53:05.878Z,99.99
2018-03-20T08:54:06.483Z,99.99
2018-03-20T08:55:07.175Z,99.99
2018-03-20T08:56:07.869Z,99.99
2018-03-20T08:57:08.513Z,99.99
2018-03-20T08:58:09.280Z,99.99
2018-03-20T08:59:09.849Z,99.99
2018-03-20T09:00:10.598Z,99.99
2018-03-20T09:01:11.236Z,99.99
2018-03-20T09:02:11.873Z,99.99
2018-03-20T09:03:12.537Z,99.99
2018-03-20T09:04:13.232Z,99.99
2018-03-20T09:05:13.918Z,99.99
2018-03-20T09:06:14.547Z,98.16
2018-03-20T09:07:15.249Z,96.93
2018-03-20T09:08:15.879Z,97.50
2018-03-20T09:09:16.568Z,97.12
2018-03-20T09:10:17.243Z,96.31
2018-03-20T09:11:17.895Z,95.22
2018-03-20T09:12:18.602Z,95.12
2018-03-20T09:13:19.281Z,95.89
2018-03-20T09:14:20.058Z,95.31
2018-03-20T09:15:20.729Z,95.55
2018-03-20T09:16:21.798Z,94.89
2018-03-20T09:17:22.540Z,94.18
2018-03-20T09:18:23.452Z,94.08
2018-03-20T09:19:24.144Z,95.27
2018-03-20T09:20:24.817Z,96.50
2018-03-20T09:21:25.492Z,97.26
2018-03-20T09:22:26.155Z,98.40
2018-03-20T09:23:26.817Z,99.16
2018-03-20T09:24:27.745Z,99.68
2018-03-20T09:25:28.378Z,99.99
2018-03-20T09:26:29.056Z,99.99
2018-03-20T09:27:29.824Z,99.99
2018-03-20T09:28:30.551Z,99.99
2018-03-20T09:29:31.317Z,99.99
2018-03-20T09:30:32.005Z,99.99
2018-03-20T09:31:32.587Z,99.99
2018-03-20T09:32:33.319Z,99.99
2018-03-20T09:33:33.960Z,99.99
2018-03-20T09:34:34.662Z,99.99
2018-03-20T09:35:35.292Z,99.99
2018-03-20T09:36:35.963Z,99.99
2018-03-20T09:37:36.632Z,99.99
2018-03-20T09:38:37.260Z,99.99
2018-03-20T09:39:37.887Z,99.99
2018-03-20T09:40:38.529Z,99.99
2018-03-20T09:41:39.202Z,99.99
2018-03-20T09:42:39.872Z,99.99
2018-03-20T09:43:40.577Z,99.99
2018-03-20T09:44:41.423Z,99.99
2018-03-20T09:45:42.162Z,99.68
2018-03-20T09:46:42.817Z,98.83
2018-03-20T09:47:43.469Z,99.21
2018-03-20T09:48:44.141Z,99.87
2018-03-20T09:49:44.783Z,99.83
2018-03-20T09:50:45.387Z,98.69
2018-03-20T09:51:45.989Z,96.03
2018-03-20T09:52:46.700Z,95.17
2018-03-20T09:53:47.331Z,94.93
2018-03-20T09:54:48.027Z,95.75
2018-03-20T09:55:48.659Z,96.88
2018-03-20T09:56:49.298Z,97.17
2018-03-20T09:57:49.989Z,96.22
2018-03-20T09:58:50.625Z,96.03
2018-03-20T09:59:51.396Z,95.32
2018-03-20T10:00:52.097Z,92.51
2018-03-20T10:01:52.767Z,93.08
2018-03-20T10:02:53.442Z,92.80
2018-03-20T10:03:54.066Z,92.23
2018-03-20T10:04:54.729Z,91.28
2018-03-20T10:05:55.398Z,90.47
2018-03-20T10:06:56.033Z,88.38
2018-03-20T10:07:56.658Z,87.34
2018-03-20T10:08:57.280Z,85.62
2018-03-20T10:09:57.923Z,85.15
2018-03-20T10:10:58.632Z,84.52
2018-03-20T10:11:59.337Z,83.76
2018-03-20T10:13:00.036Z,84.05
2018-03-20T10:14:00.703Z,81.58
2018-03-20T10:15:01.378Z,81.77
2018-03-20T10:16:02.019Z,80.91
2018-03-20T10:17:02.736Z,80.57
2018-03-20T10:18:03.406Z,80.66
2018-03-20T10:19:04.061Z,80.29
2018-03-20T10:20:04.777Z,77.97
2018-03-20T10:21:05.436Z,77.87
2018-03-20T10:22:06.059Z,78.72
2018-03-20T10:23:06.750Z,78.91
2018-03-20T10:24:07.438Z,79.11
2018-03-20T10:25:08.091Z,79.39
2018-03-20T10:26:08.759Z,79.01
2018-03-20T10:27:09.434Z,78.34
2018-03-20T10:28:10.085Z,77.58
2018-03-20T10:29:10.704Z,77.58
2018-03-20T10:30:11.331Z,76.54
2018-03-20T10:31:11.926Z,75.68
2018-03-20T10:32:12.603Z,75.96
2018-03-20T10:33:13.284Z,76.35
2018-03-20T10:34:14.000Z,76.06
2018-03-20T10:35:14.883Z,75.87
2018-03-20T10:36:15.527Z,75.05
2018-03-20T10:37:16.153Z,74.87
2018-03-20T10:38:16.820Z,75.72
2018-03-20T10:39:17.463Z,74.01
2018-03-20T10:40:18.145Z,74.04
2018-03-20T10:41:18.766Z,71.82
2018-03-20T10:42:19.734Z,70.68
2018-03-20T10:43:20.671Z,71.25
2018-03-20T10:44:21.372Z,71.63
2018-03-20T10:45:22.043Z,71.06
2018-03-20T10:46:22.693Z,71.25
2018-03-20T10:47:23.361Z,71.50
2018-03-20T10:48:23.964Z,71.59
2018-03-20T10:49:24.659Z,71.97
2018-03-20T10:50:25.529Z,72.35
2018-03-20T10:51:26.201Z,71.69
2018-03-20T10:52:26.896Z,71.78
2018-03-20T10:53:27.541Z,71.50
2018-03-20T10:54:28.222Z,70.93
2018-03-20T10:55:28.896Z,71.02
2018-03-20T10:56:29.543Z,70.74
2018-03-20T10:57:30.189Z,70.93
2018-03-20T10:58:30.876Z,71.12
2018-03-20T10:59:31.533Z,70.87
2018-03-20T11:00:32.221Z,70.87
2018-03-20T11:01:32.978Z,70.97
2018-03-20T11:02:33.471Z,70.81
2018-03-20T11:03:34.160Z,68.33
2018-03-20T11:04:34.842Z,68.43
2018-03-20T11:05:35.496Z,68.52
2018-03-20T11:06:36.164Z,67.86
2018-03-20T11:07:36.721Z,67.67
2018-03-20T11:08:37.442Z,67.51
2018-03-20T11:09:38.107Z,65.51
2018-03-20T11:10:38.818Z,64.94
2018-03-20T11:11:39.459Z,64.56
2018-03-20T11:12:40.167Z,65.03
2018-03-20T11:13:40.843Z,65.61
2018-03-20T11:14:41.493Z,64.47
2018-03-20T11:15:42.145Z,63.80
2018-03-20T11:16:42.828Z,64.02
2018-03-20T11:17:43.700Z,64.12
2018-03-20T11:18:44.412Z,62.97
2018-03-20T11:19:45.091Z,62.21
2018-03-20T11:20:45.749Z,62.21
2018-03-20T11:21:46.396Z,62.30
2018-03-20T11:22:47.092Z,61.80
2018-03-20T11:23:47.732Z,61.80
2018-03-20T11:24:48.410Z,61.83
2018-03-20T11:25:49.077Z,61.83
2018-03-20T11:26:49.691Z,60.94
2018-03-20T11:27:50.390Z,60.27
2018-03-20T11:28:51.243Z,60.46
2018-03-20T11:29:52.243Z,60.37
2018-03-20T11:30:52.904Z,60.59
2018-03-20T11:31:53.530Z,61.07
2018-03-20T11:32:54.190Z,60.59
2018-03-20T11:33:54.869Z,59.92
2018-03-20T11:34:55.551Z,59.54
2018-03-20T11:35:56.221Z,58.30
2018-03-20T11:36:56.885Z,58.11
2018-03-20T11:37:57.631Z,58.14
2018-03-20T11:38:58.333Z,58.14
2018-03-20T11:39:59.004Z,58.36
2018-03-20T11:40:59.616Z,57.86
2018-03-20T11:42:00.366Z,57.67
2018-03-20T11:43:01.035Z,57.19
2018-03-20T11:44:01.724Z,56.71
2018-03-20T11:45:02.552Z,57.19
2018-03-20T11:46:03.251Z,56.90
2018-03-20T11:47:03.845Z,57.09
2018-03-20T11:48:04.541Z,58.24
2018-03-20T11:49:05.219Z,57.60
2018-03-20T11:50:05.883Z,56.93
2018-03-20T11:51:06.503Z,55.50
2018-03-20T11:52:07.146Z,55.34
2018-03-20T11:53:07.897Z,55.12
2018-03-20T11:54:08.629Z,54.19
2018-03-20T11:55:09.246Z,54.00
2018-03-20T11:56:09.837Z,53.05
2018-03-20T11:57:10.512Z,52.57
2018-03-20T11:58:11.164Z,52.67
2018-03-20T11:59:11.836Z,52.28
2018-03-20T12:00:12.689Z,51.59
2018-03-20T12:01:13.334Z,51.78
2018-03-20T12:02:13.945Z,52.26
2018-03-20T12:03:14.674Z,52.14
2018-03-20T12:04:15.313Z,52.26
2018-03-20T12:05:16.077Z,52.64
2018-03-20T12:06:16.764Z,52.64
2018-03-20T12:07:17.527Z,53.97
2018-03-20T12:08:18.239Z,53.72
2018-03-20T12:09:18.867Z,53.14
2018-03-20T12:10:19.553Z,52.69
2018-03-20T12:11:20.230Z,52.24
2018-03-20T12:12:20.914Z,50.49
2018-03-20T12:13:21.590Z,49.33
2018-03-20T12:14:22.232Z,49.54
2018-03-20T12:15:22.923Z,49.16
2018-03-20T12:16:23.605Z,48.59
2018-03-20T12:17:24.340Z,48.66
2018-03-20T12:18:24.991Z,49.23
2018-03-20T12:19:25.625Z,49.23
2018-03-20T12:20:26.296Z,48.75
2018-03-20T12:21:26.940Z,48.97
2018-03-20T12:22:27.582Z,48.68
2018-03-20T12:23:28.252Z,48.90
2018-03-20T12:24:28.910Z,48.61
2018-03-20T12:25:29.565Z,48.13
2018-03-20T12:26:30.238Z,47.30
2018-03-20T12:27:30.942Z,46.89
2018-03-20T12:28:31.602Z,47.44
2018-03-20T12:29:32.299Z,48.02
2018-03-20T12:30:32.911Z,48.42
2018-03-20T12:31:33.629Z,47.18
2018-03-20T12:32:34.281Z,47.63
2018-03-20T12:33:35.223Z,47.44
2018-03-20T12:34:35.991Z,48.23
2018-03-20T12:35:36.652Z,47.66
2018-03-20T12:36:37.360Z,47.18
2018-03-20T12:37:38.076Z,47.27
2018-03-20T12:38:38.732Z,47.49
2018-03-20T12:39:39.398Z,46.82
2018-03-20T12:40:40.041Z,46.15
2018-03-20T12:41:40.768Z,45.96
2018-03-20T12:42:41.453Z,46.17
2018-03-20T12:43:42.049Z,46.08
2018-03-20T12:44:42.664Z,45.98
2018-03-20T12:45:43.364Z,45.12
2018-03-20T12:46:44.026Z,44.26
2018-03-20T12:47:44.597Z,43.65
2018-03-20T12:48:45.207Z,44.20
2018-03-20T12:49:45.826Z,44.77
2018-03-20T12:50:46.475Z,44.70
2018-03-20T12:51:47.066Z,43.62
2018-03-20T12:52:47.694Z,44.48
2018-03-20T12:53:48.310Z,44.41
2018-03-20T12:54:48.922Z,44.81
2018-03-20T12:55:49.530Z,44.34
2018-03-20T12:56:50.146Z,43.57
2018-03-20T12:57:50.776Z,43.76
2018-03-20T12:58:51.394Z,43.65
2018-03-20T12:59:52.082Z,43.86
2018-03-20T13:00:52.653Z,43.86